createdAt,value
2023-06-01T00:00:58.934Z,100313.50
2023-06-01T00:03:25.966Z,100315.00
2023-06-01T00:05:52.969Z,100315.09
2023-06-01T00:08:19.574Z,100314.66
2023-06-01T00:10:47.538Z,100320.53
2023-06-01T00:13:14.315Z,100315.91
2023-06-01T00:15:40.976Z,100302.78
2023-06-01T00:18:07.896Z,100313.09
2023-06-01T00:20:34.713Z,100317.72
2023-06-01T00:23:01.576Z,100316.53
2023-06-01T00:25:28.465Z,100316.03
2023-06-01T00:27:56.533Z,100307.75
2023-06-01T00:30:23.292Z,100309.56
2023-06-01T00:32:49.929Z,100304.19
2023-06-01T00:35:16.598Z,100305.47
2023-06-01T00:37:43.408Z,100301.81
2023-06-01T00:40:11.243Z,100302.78
2023-06-01T00:42:37.889Z,100320.88
2023-06-01T00:45:07.293Z,100312.06
2023-06-01T00:47:40.694Z,100313.75
2023-06-01T00:50:08.089Z,100308.50
2023-06-01T00:52:36.531Z,100311.09
2023-06-01T00:55:03.665Z,100309.47
2023-06-01T00:57:31.013Z,100317.91
2023-06-01T00:59:58.439Z,100310.59
2023-06-01T01:02:26.657Z,100303.72
2023-06-01T01:04:53.333Z,100304.72
2023-06-01T01:07:26.111Z,100304.72
2023-06-01T01:09:59.700Z,100305.06
2023-06-01T01:12:34.282Z,100312.47
2023-06-01T01:15:08.582Z,100313.69
2023-06-01T01:17:40.103Z,100315.34
2023-06-01T01:20:10.749Z,100306.22
2023-06-01T01:22:48.565Z,100307.22
2023-06-01T01:25:48.994Z,100304.25
2023-06-01T01:28:41.246Z,100305.09
2023-06-01T01:31:10.588Z,100298.22
2023-06-01T01:33:37.999Z,100299.94
2023-06-01T01:36:06.754Z,100293.09
2023-06-01T01:38:35.408Z,100287.78
2023-06-01T01:41:02.274Z,100307.50
2023-06-01T01:43:29.928Z,100308.28
2023-06-01T01:46:06.815Z,100301.78
2023-06-01T01:48:45.184Z,100299.06
2023-06-01T01:51:17.710Z,100304.53
2023-06-01T01:53:46.278Z,100296.84
2023-06-01T01:56:14.722Z,100296.94
2023-06-01T01:58:43.086Z,100297.63
2023-06-01T02:01:11.432Z,100290.16
2023-06-01T02:03:38.541Z,100303.69
2023-06-01T02:06:05.517Z,100300.72
2023-06-01T02:08:32.157Z,100305.41
2023-06-01T02:10:58.923Z,100305.53
2023-06-01T02:13:25.528Z,100288.56
2023-06-01T02:15:52.168Z,100301.25
2023-06-01T02:18:20.271Z,100294.13
2023-06-01T02:20:47.117Z,100295.78
2023-06-01T02:23:13.710Z,100294.25
2023-06-01T02:25:40.316Z,100293.38
2023-06-01T02:28:06.919Z,100300.16
2023-06-01T02:30:33.647Z,100299.88
2023-06-01T02:33:00.360Z,100296.75
2023-06-01T02:35:28.399Z,100299.47
2023-06-01T02:37:55.144Z,100298.75
2023-06-01T02:40:21.902Z,100304.63
2023-06-01T02:42:48.492Z,100297.50
2023-06-01T02:45:15.351Z,100305.88
2023-06-01T02:47:42.117Z,100307.13
2023-06-01T02:50:09.551Z,100308.97
2023-06-01T02:52:37.967Z,100310.81
2023-06-01T02:55:05.382Z,100302.63
2023-06-01T02:57:31.968Z,100302.06
2023-06-01T02:59:58.609Z,100300.06
2023-06-01T03:02:25.291Z,100310.13
2023-06-01T03:04:51.993Z,100297.47
2023-06-01T03:07:18.605Z,100311.97
2023-06-01T03:09:46.565Z,100310.50
2023-06-01T03:12:13.463Z,100314.66
2023-06-01T03:14:40.072Z,100314.66
2023-06-01T03:17:07.060Z,100316.47
2023-06-01T03:19:33.745Z,100310.19
2023-06-01T03:22:00.533Z,100317.41
2023-06-01T03:24:27.452Z,100310.19
2023-06-01T03:26:55.465Z,100310.97
2023-06-01T03:29:22.305Z,100313.47
2023-06-01T03:31:49.109Z,100321.25
2023-06-01T03:34:15.746Z,100314.00
2023-06-01T03:36:42.657Z,100306.31
2023-06-01T03:39:09.490Z,100302.78
2023-06-01T03:41:36.278Z,100308.13
2023-06-01T03:44:04.696Z,100308.50
2023-06-01T03:46:31.477Z,100317.16
2023-06-01T03:48:58.091Z,100312.28
2023-06-01T03:51:25.132Z,100314.50
2023-06-01T03:53:52.631Z,100316.81
2023-06-01T03:56:19.424Z,100317.03
2023-06-01T03:58:46.353Z,100321.69
2023-06-01T04:01:14.486Z,100323.50
2023-06-01T04:03:41.169Z,100328.31
2023-06-01T04:06:08.099Z,100328.16
2023-06-01T04:08:34.827Z,100326.69
2023-06-01T04:11:01.667Z,100333.59
2023-06-01T04:13:29.921Z,100334.28
2023-06-01T04:15:57.420Z,100341.31
2023-06-01T04:18:25.437Z,100341.38
2023-06-01T04:20:52.033Z,100333.78
2023-06-01T04:23:18.811Z,100327.69
2023-06-01T04:25:45.524Z,100336.06
2023-06-01T04:28:13.457Z,100332.19
2023-06-01T04:30:40.636Z,100338.91
2023-06-01T04:33:07.221Z,100339.72
2023-06-01T04:35:35.245Z,100334.94
2023-06-01T04:38:02.456Z,100341.25
2023-06-01T04:40:29.267Z,100340.56
2023-06-01T04:42:55.907Z,100336.19
2023-06-01T04:45:23.036Z,100336.75
2023-06-01T04:47:49.766Z,100345.09
2023-06-01T04:50:16.830Z,100337.59
2023-06-01T04:52:45.498Z,100341.31
2023-06-01T04:55:12.683Z,100349.50
2023-06-01T04:57:39.950Z,100337.78
2023-06-01T05:00:08.037Z,100347.25
2023-06-01T05:02:34.644Z,100338.47
2023-06-01T05:05:01.489Z,100336.25
2023-06-01T05:07:28.077Z,100349.63
2023-06-01T05:09:56.654Z,100346.31
2023-06-01T05:12:23.239Z,100347.81
2023-06-01T05:14:49.991Z,100339.00
2023-06-01T05:17:16.792Z,100340.19
2023-06-01T05:19:43.375Z,100339.03
2023-06-01T05:22:09.990Z,100338.22
2023-06-01T05:24:36.601Z,100344.78
2023-06-01T05:27:05.438Z,100352.41
2023-06-01T05:29:32.060Z,100362.63
2023-06-01T05:31:58.825Z,100352.75
2023-06-01T05:34:25.505Z,100349.50
2023-06-01T05:36:52.119Z,100353.34
2023-06-01T05:39:18.903Z,100354.28
2023-06-01T05:41:45.568Z,100362.78
2023-06-01T05:44:13.544Z,100362.78
2023-06-01T05:46:40.269Z,100360.81
2023-06-01T05:49:06.869Z,100340.41
2023-06-01T05:51:33.585Z,100346.88
2023-06-01T05:54:00.274Z,100356.56
2023-06-01T05:56:26.934Z,100352.06
2023-06-01T05:58:53.538Z,100360.22
2023-06-01T06:01:21.876Z,100367.66
2023-06-01T06:03:48.693Z,100362.09
2023-06-01T06:06:15.721Z,100365.41
2023-06-01T06:08:42.282Z,100363.69
2023-06-01T06:11:08.974Z,100373.97
2023-06-01T06:13:35.646Z,100365.41
2023-06-01T06:16:02.381Z,100380.38
2023-06-01T06:18:30.428Z,100370.50
2023-06-01T06:20:59.254Z,100355.50
2023-06-01T06:23:25.919Z,100373.72
2023-06-01T06:25:52.534Z,100371.94
2023-06-01T06:28:19.587Z,100367.13
2023-06-01T06:30:46.174Z,100374.50
2023-06-01T06:33:15.268Z,100369.03
2023-06-01T06:35:43.686Z,100362.03
2023-06-01T06:38:13.952Z,100363.19
2023-06-01T06:40:40.620Z,100361.78
2023-06-01T06:43:07.217Z,100366.13
2023-06-01T06:45:33.813Z,100363.50
2023-06-01T06:48:00.448Z,100363.47
2023-06-01T06:50:27.062Z,100363.75
2023-06-01T06:52:55.082Z,100363.22
2023-06-01T06:55:21.820Z,100370.56
2023-06-01T06:57:48.393Z,100366.56
2023-06-01T07:00:16.007Z,100371.19
2023-06-01T07:02:43.016Z,100371.84
2023-06-01T07:05:09.614Z,100369.88
2023-06-01T07:07:36.238Z,100388.38
2023-06-01T07:10:05.397Z,100371.78
2023-06-01T07:12:32.546Z,100381.47
2023-06-01T07:14:59.134Z,100381.09
2023-06-01T07:17:25.936Z,100376.84
2023-06-01T07:19:52.583Z,100378.97
2023-06-01T07:22:19.249Z,100377.50
2023-06-01T07:24:45.832Z,100382.47
2023-06-01T07:27:13.832Z,100381.75
2023-06-01T07:29:40.490Z,100371.78
2023-06-01T07:32:07.513Z,100375.66
2023-06-01T07:34:34.279Z,100370.25
2023-06-01T07:37:14.917Z,100367.66
2023-06-01T07:39:42.614Z,100364.94
2023-06-01T07:42:09.238Z,100373.03
2023-06-01T07:44:37.182Z,100369.34
2023-06-01T07:47:04.490Z,100380.09
2023-06-01T07:49:31.256Z,100382.66
2023-06-01T07:51:57.932Z,100373.31
2023-06-01T07:54:24.742Z,100379.44
2023-06-01T07:56:51.334Z,100377.88
2023-06-01T07:59:17.935Z,100380.22
2023-06-01T08:01:45.910Z,100378.84
2023-06-01T08:04:12.551Z,100387.25
2023-06-01T08:06:39.192Z,100372.22
2023-06-01T08:09:05.897Z,100372.97
2023-06-01T08:11:32.604Z,100371.28
2023-06-01T08:13:59.364Z,100382.84
2023-06-01T08:16:27.793Z,100376.13
2023-06-01T08:18:56.124Z,100385.75
2023-06-01T08:21:22.759Z,100370.75
2023-06-01T08:23:49.347Z,100379.94
2023-06-01T08:26:16.000Z,100366.56
2023-06-01T08:28:42.574Z,100363.22
2023-06-01T08:31:12.206Z,100351.75
2023-06-01T08:33:38.839Z,100369.63
2023-06-01T08:36:07.673Z,100364.91
2023-06-01T08:38:34.314Z,100358.97
2023-06-01T08:41:09.167Z,100362.16
2023-06-01T08:43:37.789Z,100358.78
2023-06-01T08:46:04.730Z,100351.22
2023-06-01T08:48:32.873Z,100343.09
2023-06-01T08:51:01.420Z,100345.56
2023-06-01T08:53:32.582Z,100343.91
2023-06-01T08:55:59.196Z,100345.38
2023-06-01T08:58:26.571Z,100345.56
2023-06-01T09:00:54.964Z,100329.88
2023-06-01T09:03:22.104Z,100328.28
2023-06-01T09:05:48.853Z,100336.59
2023-06-01T09:08:16.263Z,100335.44
2023-06-01T09:10:44.326Z,100329.34
2023-06-01T09:13:10.954Z,100340.56
2023-06-01T09:15:51.111Z,100339.69
2023-06-01T09:18:17.856Z,100330.91
2023-06-01T09:20:44.538Z,100337.94
2023-06-01T09:23:11.258Z,100327.19
2023-06-01T09:25:37.867Z,100324.06
2023-06-01T09:28:05.845Z,100317.97
2023-06-01T09:30:42.178Z,100310.03
2023-06-01T09:33:12.027Z,100312.94
2023-06-01T09:35:39.561Z,100307.03
2023-06-01T09:38:06.688Z,100309.06
2023-06-01T09:40:34.283Z,100308.34
2023-06-01T09:43:01.148Z,100306.84
2023-06-01T09:45:31.556Z,100318.31
2023-06-01T09:48:16.863Z,100313.69
2023-06-01T09:50:43.485Z,100303.94
2023-06-01T09:53:10.260Z,100314.75
2023-06-01T09:55:36.884Z,100297.19
2023-06-01T09:58:28.087Z,100294.56
2023-06-01T10:01:00.524Z,100311.81
2023-06-01T10:03:28.967Z,100306.28
2023-06-01T10:05:56.527Z,100292.72
2023-06-01T10:08:23.406Z,100294.16
2023-06-01T10:10:50.169Z,100294.06
2023-06-01T10:13:16.836Z,100281.84
2023-06-01T10:15:43.577Z,100289.00
2023-06-01T10:18:13.195Z,100290.41
2023-06-01T10:20:42.846Z,100290.16
2023-06-01T10:23:29.774Z,100283.16
2023-06-01T10:25:59.860Z,100279.19
2023-06-01T10:28:27.153Z,100280.72
2023-06-01T10:31:34.236Z,100277.66
2023-06-01T10:34:11.390Z,100278.91
2023-06-01T10:37:17.951Z,100270.38
2023-06-01T10:39:50.974Z,100271.72
2023-06-01T10:42:42.110Z,100271.78
2023-06-01T10:45:38.492Z,100267.16
2023-06-01T10:48:06.739Z,100273.28
2023-06-01T10:50:35.535Z,100268.94
2023-06-01T10:53:27.445Z,100261.28
2023-06-01T10:56:19.785Z,100271.34
2023-06-01T10:58:46.543Z,100268.88
2023-06-01T11:01:20.297Z,100267.13
2023-06-01T11:03:48.990Z,100272.22
2023-06-01T11:06:29.687Z,100262.75
2023-06-01T11:13:07.110Z,100259.53
2023-06-01T11:15:37.428Z,100264.78
2023-06-01T11:18:49.102Z,100250.94
2023-06-01T11:21:17.878Z,100252.88
2023-06-01T11:23:53.572Z,100265.94
2023-06-01T11:28:14.174Z,100242.16
2023-06-01T11:33:13.707Z,100242.72
2023-06-01T11:35:43.228Z,100240.50
2023-06-01T11:38:13.697Z,100238.81
2023-06-01T11:40:59.541Z,100234.97
2023-06-01T11:43:32.321Z,100236.28
2023-06-01T11:49:11.424Z,100237.13
2023-06-01T11:51:39.453Z,100243.16
2023-06-01T11:54:09.347Z,100237.69
2023-06-01T11:56:38.423Z,100235.97
2023-06-01T11:59:05.766Z,100230.66
2023-06-01T12:01:32.754Z,100238.88
2023-06-01T12:03:59.485Z,100234.63
2023-06-01T12:06:26.242Z,100236.75
2023-06-01T12:08:53.957Z,100239.50
2023-06-01T12:11:25.891Z,100227.84
2023-06-01T12:13:54.642Z,100240.78
2023-06-01T12:16:22.848Z,100225.63
2023-06-01T12:18:50.107Z,100220.41
2023-06-01T12:21:16.933Z,100233.03
2023-06-01T12:23:44.001Z,100227.44
2023-06-01T12:26:10.606Z,100216.53
2023-06-01T12:28:52.788Z,100218.88
2023-06-01T12:31:23.112Z,100207.09
2023-06-01T12:33:49.842Z,100215.34
2023-06-01T12:36:31.011Z,100218.34
2023-06-01T12:38:58.831Z,100216.16
2023-06-01T12:41:26.114Z,100213.75
2023-06-01T12:43:53.257Z,100225.16
2023-06-01T12:46:20.287Z,100219.13
2023-06-01T12:48:48.880Z,100216.53
2023-06-01T12:51:16.090Z,100226.25
2023-06-01T12:53:42.948Z,100219.63
2023-06-01T12:56:10.004Z,100224.91
2023-06-01T12:58:37.021Z,100208.72
2023-06-01T13:01:04.209Z,100208.47
2023-06-01T13:03:30.962Z,100201.19
2023-06-01T13:05:59.018Z,100200.41
2023-06-01T13:08:25.631Z,100202.53
2023-06-01T13:10:52.336Z,100200.63
2023-06-01T13:13:18.961Z,100194.66
2023-06-01T13:15:46.510Z,100192.00
2023-06-01T13:18:13.643Z,100189.59
2023-06-01T13:20:40.686Z,100197.56
2023-06-01T13:23:08.857Z,100195.28
2023-06-01T13:25:35.658Z,100185.75
2023-06-01T13:28:02.538Z,100198.75
2023-06-01T13:30:29.725Z,100182.63
2023-06-01T13:32:56.402Z,100192.31
2023-06-01T13:35:23.433Z,100186.09
2023-06-01T13:37:50.306Z,100186.69
2023-06-01T13:40:18.282Z,100185.53
2023-06-01T13:42:45.262Z,100193.25
2023-06-01T13:45:12.243Z,100186.31
2023-06-01T13:47:38.925Z,100188.50
2023-06-01T13:50:06.253Z,100185.13
2023-06-01T13:52:32.920Z,100189.94
2023-06-01T13:54:59.604Z,100181.19
2023-06-01T13:57:27.626Z,100176.59
2023-06-01T13:59:54.282Z,100181.16
2023-06-01T14:02:21.373Z,100179.19
2023-06-01T14:04:53.597Z,100180.38
2023-06-01T14:07:26.971Z,100167.41
2023-06-01T14:09:54.006Z,100185.72
2023-06-01T14:12:20.598Z,100169.81
2023-06-01T14:14:49.860Z,100165.66
2023-06-01T14:17:16.536Z,100167.78
2023-06-01T14:19:43.190Z,100162.06
2023-06-01T14:22:09.951Z,100165.16
2023-06-01T14:24:36.795Z,100160.56
2023-06-01T14:27:05.317Z,100162.06
2023-06-01T14:29:31.925Z,100165.22
2023-06-01T14:32:00.454Z,100162.88
2023-06-01T14:34:27.140Z,100144.91
2023-06-01T14:36:53.783Z,100145.03
2023-06-01T14:39:20.471Z,100132.91
2023-06-01T14:41:47.095Z,100140.91
2023-06-01T14:44:13.876Z,100138.41
2023-06-01T14:46:40.646Z,100140.03
2023-06-01T14:49:08.973Z,100129.50
2023-06-01T14:51:35.649Z,100131.91
2023-06-01T14:54:02.372Z,100124.81
2023-06-01T14:56:29.169Z,100128.88
2023-06-01T14:58:55.896Z,100123.19
2023-06-01T15:01:23.266Z,100125.13
2023-06-01T15:03:49.962Z,100129.59
2023-06-01T15:06:18.168Z,100123.06
2023-06-01T15:08:44.820Z,100125.00
2023-06-01T15:11:13.687Z,100129.50
2023-06-01T15:13:45.034Z,100134.28
2023-06-01T15:16:11.671Z,100118.94
2023-06-01T15:18:38.493Z,100127.34
2023-06-01T15:21:05.606Z,100129.97
2023-06-01T15:23:33.889Z,100119.91
2023-06-01T15:26:00.925Z,100128.88
2023-06-01T15:28:27.590Z,100108.00
2023-06-01T15:30:54.323Z,100121.38
2023-06-01T15:33:20.979Z,100127.34
2023-06-01T15:35:47.642Z,100125.00
2023-06-01T15:38:14.441Z,100126.16
2023-06-01T15:40:42.579Z,100117.50
2023-06-01T15:43:09.251Z,100121.47
2023-06-01T15:45:35.898Z,100114.94
2023-06-01T15:48:02.586Z,100108.53
2023-06-01T15:50:29.523Z,100111.91
2023-06-01T15:52:56.108Z,100106.94
2023-06-01T15:55:23.366Z,100104.25
2023-06-01T15:57:51.385Z,100098.53
2023-06-01T16:00:18.783Z,100106.13
2023-06-01T16:02:45.525Z,100104.25
2023-06-01T16:05:12.203Z,100112.34
2023-06-01T16:07:38.832Z,100097.50
2023-06-01T16:10:06.833Z,100097.56
2023-06-01T16:12:33.613Z,100092.69
2023-06-01T16:15:01.611Z,100092.16
2023-06-01T16:17:28.257Z,100090.78
2023-06-01T16:19:54.906Z,100088.81
2023-06-01T16:22:21.534Z,100083.19
2023-06-01T16:24:48.370Z,100091.09
2023-06-01T16:27:15.064Z,100077.72
2023-06-01T16:29:41.712Z,100071.81
2023-06-01T16:32:09.898Z,100068.47
2023-06-01T16:34:37.626Z,100066.47
2023-06-01T16:37:04.955Z,100066.16
2023-06-01T16:39:31.565Z,100073.59
2023-06-01T16:42:07.287Z,100067.22
2023-06-01T16:44:36.314Z,100065.06
2023-06-01T16:47:18.327Z,100069.34
2023-06-01T16:49:44.971Z,100067.09
2023-06-01T16:52:13.362Z,100066.53
2023-06-01T16:54:43.050Z,100058.78
2023-06-01T16:57:09.656Z,100063.06
2023-06-01T16:59:39.419Z,100066.56
2023-06-01T17:02:06.318Z,100057.13
2023-06-01T17:04:43.924Z,100053.34
2023-06-01T17:07:13.713Z,100036.69
2023-06-01T17:09:57.045Z,100052.47
2023-06-01T17:12:25.884Z,100045.50
2023-06-01T17:15:31.612Z,100051.09
2023-06-01T17:17:58.409Z,100049.47
2023-06-01T17:20:27.895Z,100049.31
2023-06-01T17:22:54.645Z,100054.66
2023-06-01T17:25:29.785Z,100038.41
2023-06-01T17:27:58.822Z,100045.69
2023-06-01T17:30:25.544Z,100047.03
2023-06-01T17:32:52.229Z,100045.31
2023-06-01T17:35:19.251Z,100038.50
2023-06-01T17:37:47.674Z,100029.47
2023-06-01T17:40:14.251Z,100036.41
2023-06-01T17:42:40.905Z,100035.28
2023-06-01T17:45:08.516Z,100040.97
2023-06-01T17:47:35.291Z,100035.69
2023-06-01T17:50:02.211Z,100040.47
2023-06-01T17:52:28.817Z,100044.56
2023-06-01T17:54:57.021Z,100047.66
2023-06-01T17:57:23.614Z,100057.66
2023-06-01T17:59:50.337Z,100063.59
2023-06-01T18:02:17.305Z,100068.41
2023-06-01T18:04:44.102Z,100061.59
2023-06-01T18:07:10.738Z,100058.75
2023-06-01T18:09:37.386Z,100063.69
2023-06-01T18:12:06.607Z,100054.38
2023-06-01T18:14:33.191Z,100066.09
2023-06-01T18:16:59.968Z,100063.25
2023-06-01T18:19:26.583Z,100066.97
2023-06-01T18:21:53.405Z,100073.63
2023-06-01T18:24:20.081Z,100074.06
2023-06-01T18:26:46.688Z,100068.00
2023-06-01T18:29:14.708Z,100076.38
2023-06-01T18:31:41.317Z,100080.81
2023-06-01T18:34:07.972Z,100080.03
2023-06-01T18:36:34.618Z,100079.81
2023-06-01T18:39:01.239Z,100086.41
2023-06-01T18:41:28.096Z,100080.03
2023-06-01T18:43:54.722Z,100087.38
2023-06-01T18:46:22.954Z,100084.66
2023-06-01T18:48:50.087Z,100079.78
2023-06-01T18:51:17.080Z,100084.94
2023-06-01T18:53:43.966Z,100080.56
2023-06-01T18:56:10.829Z,100079.19
2023-06-01T18:58:37.823Z,100081.16
2023-06-01T19:01:04.781Z,100084.69
2023-06-01T19:03:33.128Z,100089.06
2023-06-01T19:06:00.004Z,100082.84
2023-06-01T19:08:29.355Z,100087.13
2023-06-01T19:10:59.495Z,100082.50
2023-06-01T19:13:33.692Z,100077.53
2023-06-01T19:16:04.191Z,100082.75
2023-06-01T19:18:30.789Z,100081.53
2023-06-01T19:21:17.941Z,100088.50
2023-06-01T19:23:50.061Z,100081.41
2023-06-01T19:26:20.010Z,100098.72
2023-06-01T19:28:49.699Z,100093.09
2023-06-01T19:31:20.503Z,100095.03
2023-06-01T19:33:47.516Z,100099.97
2023-06-01T19:37:00.624Z,100098.34
2023-06-01T19:39:29.590Z,100103.72
2023-06-01T19:42:00.565Z,100099.59
2023-06-01T19:44:29.140Z,100114.31
2023-06-01T19:46:55.781Z,100112.22
2023-06-01T19:49:22.370Z,100109.78
2023-06-01T19:51:50.537Z,100122.31
2023-06-01T19:54:20.314Z,100117.75
2023-06-01T19:56:47.061Z,100119.63
2023-06-01T19:59:19.167Z,100118.41
2023-06-01T20:01:45.876Z,100122.59
2023-06-01T20:04:12.714Z,100128.09
2023-06-01T20:06:41.311Z,100127.72
2023-06-01T20:09:10.688Z,100129.06
2023-06-01T20:11:38.247Z,100130.50
2023-06-01T20:14:11.019Z,100139.38
2023-06-01T20:16:37.741Z,100128.53
2023-06-01T20:19:04.650Z,100129.75
2023-06-01T20:21:31.349Z,100129.00
2023-06-01T20:24:01.101Z,100129.44
2023-06-01T20:26:29.284Z,100111.38
2023-06-01T20:29:10.148Z,100133.81
2023-06-01T20:31:36.904Z,100127.72
2023-06-01T20:34:05.475Z,100133.59
2023-06-01T20:36:35.173Z,100118.28
2023-06-01T20:39:09.421Z,100125.06
2023-06-01T20:41:51.776Z,100121.59
2023-06-01T20:44:20.492Z,100115.00
2023-06-01T20:46:47.365Z,100119.38
2023-06-01T20:49:13.991Z,100115.59
2023-06-01T20:51:42.824Z,100118.22
2023-06-01T20:54:10.992Z,100122.59
2023-06-01T20:56:40.498Z,100114.53
2023-06-01T20:59:10.398Z,100118.25
2023-06-01T21:01:38.667Z,100125.72
2023-06-01T21:04:07.119Z,100124.94
2023-06-01T21:06:34.166Z,100129.97
2023-06-01T21:09:01.123Z,100128.66
2023-06-01T21:11:27.906Z,100120.22
2023-06-01T21:13:56.251Z,100129.06
2023-06-01T21:16:23.766Z,100132.00
2023-06-01T21:18:50.875Z,100130.03
2023-06-01T21:21:17.718Z,100140.13
2023-06-01T21:23:44.550Z,100133.13
2023-06-01T21:26:11.674Z,100131.94
2023-06-01T21:28:38.397Z,100147.66
2023-06-01T21:31:06.885Z,100152.38
2023-06-01T21:33:33.898Z,100153.66
2023-06-01T21:36:00.586Z,100149.38
2023-06-01T21:38:27.330Z,100146.22
2023-06-01T21:40:54.052Z,100136.44
2023-06-01T21:43:20.744Z,100146.34
2023-06-01T21:45:47.943Z,100147.88
2023-06-01T21:48:16.759Z,100148.28
2023-06-01T21:50:44.200Z,100149.91
2023-06-01T21:53:11.305Z,100153.78
2023-06-01T21:55:38.143Z,100155.75
2023-06-01T21:58:05.209Z,100153.22
2023-06-01T22:00:31.954Z,100154.66
2023-06-01T22:02:58.832Z,100165.63
2023-06-01T22:05:27.039Z,100163.31
2023-06-01T22:07:53.938Z,100166.66
2023-06-01T22:10:20.726Z,100159.34
2023-06-01T22:12:47.394Z,100178.25
2023-06-01T22:15:14.196Z,100164.34
2023-06-01T22:17:40.921Z,100169.84
2023-06-01T22:20:08.723Z,100168.34
2023-06-01T22:22:37.883Z,100169.41
2023-06-01T22:25:05.725Z,100163.59
2023-06-01T22:27:32.517Z,100161.97
2023-06-01T22:29:59.370Z,100170.81
2023-06-01T22:32:26.103Z,100166.72
2023-06-01T22:34:52.973Z,100165.94
2023-06-01T22:37:19.675Z,100177.91
2023-06-01T22:39:47.781Z,100172.06
2023-06-01T22:42:14.613Z,100170.91
2023-06-01T22:44:41.266Z,100172.28
2023-06-01T22:47:08.232Z,100172.56
2023-06-01T22:49:35.151Z,100177.16
2023-06-01T22:52:02.568Z,100177.09
2023-06-01T22:54:29.906Z,100169.75
2023-06-01T22:56:58.422Z,100173.34
2023-06-01T22:59:25.401Z,100178.78
2023-06-01T23:01:52.193Z,100172.19
2023-06-01T23:04:19.149Z,100181.72
2023-06-01T23:06:46.543Z,100181.63
2023-06-01T23:09:13.270Z,100176.47
2023-06-01T23:11:39.923Z,100177.16
2023-06-01T23:14:07.983Z,100177.44
2023-06-01T23:16:34.892Z,100182.16
2023-06-01T23:19:01.568Z,100172.50
2023-06-01T23:21:28.483Z,100171.09
2023-06-01T23:23:55.201Z,100184.53
2023-06-01T23:26:21.925Z,100188.09
2023-06-01T23:28:52.814Z,100178.22
2023-06-01T23:31:20.905Z,100172.94
2023-06-01T23:33:47.600Z,100183.19
2023-06-01T23:36:14.534Z,100180.06
2023-06-01T23:38:41.492Z,100186.34
2023-06-01T23:41:08.159Z,100185.63
2023-06-01T23:43:34.966Z,100188.00
2023-06-01T23:46:01.803Z,100187.31
2023-06-01T23:48:30.059Z,100184.69
2023-06-01T23:50:56.716Z,100188.22
2023-06-01T23:53:23.440Z,100187.13
2023-06-01T23:55:50.130Z,100187.91
2023-06-01T23:58:16.815Z,100183.41
